Time;durP1;ratioP1;P1;durP2;ratioP2;P2;SDS_P1;SDS_P2;PMS_P1;PMS_P2;Temp;Humidity;BMP_temperature;BMP_pressure;BME280_temperature;BME280_humidity;BME280_pressure;Samples;Min_cycle;Max_cycle;Signal;HPM_P1;HPM_P2
2020/12/01 00:01:30;;;;;;;13.00;7.28;;;1.20;89.80;;;;;;5044246;28;20036;-74
2020/12/01 00:03:56;;;;;;;15.65;7.47;;;1.20;90.00;;;;;;5040972;28;20041;-75
2020/12/01 00:06:22;;;;;;;16.75;8.10;;;1.30;89.90;;;;;;5033711;28;20028;-75
2020/12/01 00:08:47;;;;;;;14.82;8.32;;;1.20;89.80;;;;;;5038364;28;20029;-75
2020/12/01 00:11:15;;;;;;;16.38;9.38;;;1.30;89.90;;;;;;5052223;28;20064;-75
2020/12/01 00:13:41;;;;;;;15.02;8.70;;;1.20;89.80;;;;;;5039317;28;20391;-76
2020/12/01 00:16:11;;;;;;;16.20;8.55;;;1.30;89.90;;;;;;5046377;28;20025;-76
2020/12/01 00:18:38;;;;;;;15.63;7.90;;;1.30;90.00;;;;;;5033973;28;20057;-75
2020/12/01 00:21:03;;;;;;;16.83;8.82;;;1.30;90.00;;;;;;5033388;28;20034;-76
2020/12/01 00:23:29;;;;;;;15.27;7.95;;;1.30;90.00;;;;;;5042152;28;20143;-75
2020/12/01 00:25:55;;;;;;;16.50;8.65;;;1.30;90.00;;;;;;5034295;28;20365;-76
2020/12/01 00:28:21;;;;;;;15.52;8.30;;;1.30;90.00;;;;;;5034704;28;20034;-75
2020/12/01 00:30:47;;;;;;;16.17;8.85;;;1.30;90.00;;;;;;5042804;28;20036;-74
2020/12/01 00:33:13;;;;;;;16.20;9.07;;;1.30;89.70;;;;;;5043991;28;20067;-75
2020/12/01 00:35:38;;;;;;;15.75;8.60;;;1.30;89.90;;;;;;5047734;28;20061;-76
2020/12/01 00:38:05;;;;;;;18.60;9.15;;;1.30;89.90;;;;;;5039924;28;20429;-74
2020/12/01 00:40:30;;;;;;;15.32;8.65;;;1.30;90.00;;;;;;5039385;28;20044;-75
2020/12/01 00:42:56;;;;;;;15.65;8.95;;;1.20;90.00;;;;;;5033385;28;20053;-73
2020/12/01 00:45:22;;;;;;;15.20;8.80;;;1.20;89.90;;;;;;5044681;28;20025;-73
2020/12/01 00:47:47;;;;;;;16.35;8.38;;;1.20;90.00;;;;;;5036943;28;20026;-74
2020/12/01 00:50:17;;;;;;;15.45;8.55;;;1.20;90.00;;;;;;5044388;28;20029;-74
2020/12/01 00:52:44;;;;;;;15.98;8.57;;;1.20;90.00;;;;;;5036498;28;20167;-74
2020/12/01 00:55:10;;;;;;;16.75;9.30;;;1.20;90.00;;;;;;5048312;28;20052;-74
2020/12/01 00:57:36;;;;;;;14.75;8.50;;;1.20;90.00;;;;;;5038691;28;20088;-74
2020/12/01 01:00:06;;;;;;;18.00;9.85;;;1.10;90.00;;;;;;5067722;28;20033;-73
2020/12/01 01:02:31;;;;;;;18.83;9.55;;;1.10;90.00;;;;;;5060853;28;20045;-75
2020/12/01 01:04:57;;;;;;;16.75;8.43;;;1.10;90.00;;;;;;5051403;28;20036;-74
2020/12/01 01:07:23;;;;;;;17.45;8.48;;;1.10;90.00;;;;;;5042593;28;20036;-75
2020/12/01 01:09:48;;;;;;;17.20;8.60;;;1.10;90.10;;;;;;5044736;28;20481;-74
2020/12/01 01:12:14;;;;;;;17.90;8.95;;;1.10;90.10;;;;;;5048229;28;20387;-75
2020/12/01 01:14:41;;;;;;;16.02;8.88;;;1.10;90.20;;;;;;5044324;28;20086;-76
2020/12/01 01:17:07;;;;;;;17.30;9.35;;;1.20;90.20;;;;;;5036320;28;20493;-74
2020/12/01 01:19:33;;;;;;;18.40;9.90;;;1.20;90.20;;;;;;5036575;28;20065;-74
2020/12/01 01:21:59;;;;;;;15.57;9.23;;;1.20;90.10;;;;;;5035578;28;20495;-75
2020/12/01 01:24:24;;;;;;;18.55;9.38;;;1.20;90.10;;;;;;5035170;28;20030;-74
2020/12/01 01:26:54;;;;;;;17.40;8.93;;;1.10;90.10;;;;;;5033834;28;20039;-75
2020/12/01 01:29:21;;;;;;;19.33;9.55;;;1.10;90.10;;;;;;5035042;28;20104;-75
2020/12/01 01:31:50;;;;;;;16.30;8.60;;;1.10;90.10;;;;;;5048513;28;20025;-75
2020/12/01 01:34:16;;;;;;;19.13;10.60;;;1.10;90.10;;;;;;5048037;28;20052;-75
2020/12/01 01:36:42;;;;;;;16.30;9.27;;;1.10;90.20;;;;;;5047708;28;20467;-75
2020/12/01 01:39:08;;;;;;;14.80;8.25;;;1.10;90.20;;;;;;5040065;28;20030;-75
2020/12/01 01:41:37;;;;;;;16.95;9.35;;;1.10;90.20;;;;;;5050500;28;20529;-75
2020/12/01 01:44:19;;;;;;;17.02;9.15;;;1.10;90.20;;;;;;5039513;28;20037;-75
2020/12/01 01:46:52;;;;;;;17.83;8.77;;;1.20;90.30;;;;;;5032526;28;20033;-75
2020/12/01 01:49:21;;;;;;;17.63;8.73;;;1.10;90.20;;;;;;5040566;28;20025;-74
2020/12/01 01:51:56;;;;;;;15.00;8.85;;;1.20;90.20;;;;;;5041844;28;20029;-73
2020/12/01 01:54:24;;;;;;;17.33;9.07;;;1.20;90.20;;;;;;5036623;28;20026;-73
2020/12/01 01:56:59;;;;;;;17.27;9.27;;;1.20;90.20;;;;;;5036983;28;20026;-74
2020/12/01 01:59:28;;;;;;;17.90;9.88;;;1.20;90.20;;;;;;5042466;28;20088;-74
2020/12/01 02:01:55;;;;;;;17.00;9.02;;;1.10;90.10;;;;;;5041443;28;20116;-74
2020/12/01 02:04:22;;;;;;;18.23;9.13;;;1.10;90.20;;;;;;5044400;28;20028;-74
2020/12/01 02:06:53;;;;;;;15.63;8.98;;;1.10;90.30;;;;;;5048034;28;20443;-73
2020/12/01 02:09:20;;;;;;;16.83;9.32;;;1.10;90.30;;;;;;5042588;28;20025;-73
2020/12/01 02:11:48;;;;;;;18.35;9.25;;;1.20;90.30;;;;;;5053561;28;20025;-73
2020/12/01 02:14:37;;;;;;;16.42;8.55;;;1.20;90.30;;;;;;5053181;28;20029;-72
2020/12/01 02:17:29;;;;;;;15.88;8.60;;;1.10;90.30;;;;;;5054167;28;20087;-72
2020/12/01 02:19:57;;;;;;;15.27;8.05;;;1.20;90.40;;;;;;5039476;28;20037;-72
2020/12/01 02:22:26;;;;;;;14.40;8.07;;;1.20;90.40;;;;;;5054422;28;20475;-72
2020/12/01 02:24:52;;;;;;;14.90;8.25;;;1.20;90.30;;;;;;5050373;28;20052;-72
2020/12/01 02:27:20;;;;;;;14.73;8.57;;;1.20;90.30;;;;;;5051773;28;20056;-72
2020/12/01 02:29:49;;;;;;;14.93;8.27;;;1.20;90.30;;;;;;5051202;28;20109;-73
2020/12/01 02:32:16;;;;;;;17.02;9.30;;;1.20;90.20;;;;;;5047891;28;20061;-72
2020/12/01 02:34:45;;;;;;;15.63;8.95;;;1.20;90.20;;;;;;5050036;28;20079;-74
2020/12/01 02:37:15;;;;;;;17.92;8.85;;;1.20;90.20;;;;;;5048474;28;20029;-72
2020/12/01 02:39:40;;;;;;;15.02;8.15;;;1.20;90.20;;;;;;5042500;28;20025;-72
2020/12/01 02:42:09;;;;;;;16.58;8.63;;;1.20;90.30;;;;;;5055876;28;20051;-72
2020/12/01 02:44:35;;;;;;;15.23;8.75;;;1.20;90.30;;;;;;5044870;28;20083;-72
2020/12/01 02:47:04;;;;;;;13.40;7.95;;;1.20;90.40;;;;;;5047080;28;20433;-73
2020/12/01 02:49:34;;;;;;;14.63;8.05;;;1.30;90.50;;;;;;5048656;28;20025;-73
2020/12/01 02:52:00;;;;;;;17.45;8.75;;;1.20;90.30;;;;;;5049630;28;20033;-72
2020/12/01 02:54:26;;;;;;;14.85;8.27;;;1.20;90.30;;;;;;5038543;28;20022;-71
2020/12/01 02:56:52;;;;;;;16.20;8.43;;;1.20;90.30;;;;;;5041014;28;20022;-73
2020/12/01 02:59:18;;;;;;;18.23;9.27;;;1.20;90.30;;;;;;5036394;28;20028;-72
2020/12/01 03:01:44;;;;;;;14.48;8.45;;;1.20;90.30;;;;;;5048392;28;20047;-72
2020/12/01 03:04:11;;;;;;;14.25;8.32;;;1.30;90.40;;;;;;5041524;28;20059;-72
2020/12/01 03:06:37;;;;;;;14.95;8.60;;;1.30;90.40;;;;;;5044730;28;20029;-72
2020/12/01 03:09:08;;;;;;;14.07;8.30;;;1.30;90.30;;;;;;5042020;28;20025;-73
2020/12/01 03:11:34;;;;;;;15.35;8.60;;;1.30;90.30;;;;;;5036885;28;20030;-72
2020/12/01 03:14:00;;;;;;;14.75;7.65;;;1.30;90.30;;;;;;5035391;28;20439;-72
2020/12/01 03:16:26;;;;;;;14.25;8.02;;;1.30;90.20;;;;;;5036833;28;20029;-73
2020/12/01 03:18:52;;;;;;;15.93;8.73;;;1.30;90.30;;;;;;5053087;28;20099;-73
2020/12/01 03:21:18;;;;;;;14.35;8.43;;;1.30;90.30;;;;;;5038567;28;20120;-73
2020/12/01 03:23:44;;;;;;;13.48;7.72;;;1.30;90.20;;;;;;5040082;28;20437;-73
2020/12/01 03:26:12;;;;;;;13.68;7.38;;;1.30;90.20;;;;;;5033394;28;20083;-74
2020/12/01 03:28:39;;;;;;;15.63;7.93;;;1.30;90.20;;;;;;5037158;28;20028;-73
2020/12/01 03:31:05;;;;;;;14.88;8.15;;;1.30;90.20;;;;;;5048876;28;20108;-73
2020/12/01 03:33:31;;;;;;;14.25;7.80;;;1.30;90.30;;;;;;5036839;28;20113;-75
2020/12/01 03:35:57;;;;;;;15.43;8.20;;;1.30;90.30;;;;;;5046136;28;20426;-73
2020/12/01 03:38:23;;;;;;;13.10;7.22;;;1.30;90.30;;;;;;5039564;28;20025;-72
2020/12/01 03:40:49;;;;;;;14.55;8.05;;;1.30;90.30;;;;;;5042496;28;20029;-73
2020/12/01 03:43:15;;;;;;;16.55;7.93;;;1.30;90.30;;;;;;5049891;28;20079;-73
2020/12/01 03:45:42;;;;;;;14.32;7.70;;;1.30;90.30;;;;;;5042039;28;20037;-73
2020/12/01 03:48:08;;;;;;;15.88;8.35;;;1.30;90.30;;;;;;5041655;28;20506;-75
2020/12/01 03:50:34;;;;;;;15.45;7.55;;;1.30;90.30;;;;;;5039169;28;20040;-72
2020/12/01 03:53:00;;;;;;;13.85;8.18;;;1.40;90.30;;;;;;5042403;28;20029;-73
2020/12/01 03:55:26;;;;;;;13.93;8.23;;;1.40;90.40;;;;;;5046450;28;20463;-73
2020/12/01 03:57:53;;;;;;;14.18;8.13;;;1.40;90.30;;;;;;5045956;28;20029;-73
2020/12/01 04:00:21;;;;;;;13.27;7.68;;;1.40;90.20;;;;;;5040370;28;20426;-73
2020/12/01 04:02:47;;;;;;;12.55;7.88;;;1.40;90.20;;;;;;5050590;28;20044;-73
2020/12/01 04:05:14;;;;;;;14.10;7.60;;;1.40;90.20;;;;;;5041854;28;20034;-73
2020/12/01 04:07:41;;;;;;;10.98;6.65;;;1.40;90.40;;;;;;5049239;28;20047;-72
2020/12/01 04:10:08;;;;;;;12.27;7.35;;;1.40;90.10;;;;;;5039618;28;20041;-72
2020/12/01 04:12:34;;;;;;;12.95;7.00;;;1.40;90.20;;;;;;5052185;28;20021;-74
2020/12/01 04:15:00;;;;;;;13.32;7.65;;;1.40;90.10;;;;;;5044152;28;21909;-74
2020/12/01 04:17:27;;;;;;;13.73;7.63;;;1.40;90.20;;;;;;5041358;28;20029;-75
2020/12/01 04:19:53;;;;;;;15.60;7.78;;;1.40;90.20;;;;;;5043882;28;20151;-74
2020/12/01 04:22:19;;;;;;;13.40;7.25;;;1.40;90.20;;;;;;5038303;28;20045;-74
2020/12/01 04:24:44;;;;;;;11.93;7.15;;;1.40;90.20;;;;;;5045212;28;20040;-75
2020/12/01 04:27:12;;;;;;;13.63;8.10;;;1.40;90.10;;;;;;5035490;28;20459;-75
2020/12/01 04:29:38;;;;;;;14.73;8.48;;;1.40;90.10;;;;;;5040722;28;20028;-75
2020/12/01 04:32:05;;;;;;;14.18;7.80;;;1.40;90.10;;;;;;5034914;28;20534;-76
2020/12/01 04:34:31;;;;;;;15.77;9.00;;;1.40;90.10;;;;;;5041079;28;20029;-76
2020/12/01 04:36:58;;;;;;;14.15;8.15;;;1.40;90.20;;;;;;5034904;28;20049;-76
2020/12/01 04:39:24;;;;;;;15.43;8.88;;;1.40;90.10;;;;;;5046156;28;20029;-77
2020/12/01 04:41:51;;;;;;;14.75;8.50;;;1.40;90.00;;;;;;5037799;28;20202;-77
2020/12/01 04:44:38;;;;;;;13.75;8.10;;;1.40;90.10;;;;;;5037237;28;20041;-76
2020/12/01 04:47:15;;;;;;;13.65;7.72;;;1.30;90.10;;;;;;5038182;28;20079;-73
2020/12/01 04:49:51;;;;;;;14.07;8.25;;;1.30;90.20;;;;;;5039644;28;20021;-79
2020/12/01 04:52:20;;;;;;;;;;;1.40;90.30;;;;;;5043294;28;20034;-74
2020/12/01 04:54:59;;;;;;;14.48;8.10;;;1.40;90.10;;;;;;5037452;28;19916;-75
2020/12/01 04:57:49;;;;;;;13.63;7.15;;;1.30;90.10;;;;;;5056593;28;20055;-75
2020/12/01 05:00:27;;;;;;;16.00;8.50;;;1.30;90.20;;;;;;5043395;28;20022;-75
2020/12/01 05:03:14;;;;;;;13.98;7.88;;;1.30;90.20;;;;;;5044431;28;20092;-75
2020/12/01 05:08:55;;;;;;;15.87;8.40;;;1.30;90.20;;;;;;5037380;28;20046;-75
2020/12/01 05:11:40;;;;;;;17.27;9.18;;;1.40;90.30;;;;;;5042158;28;20498;-76
2020/12/01 05:14:32;;;;;;;18.50;8.20;;;1.30;90.20;;;;;;5036729;28;20025;-75
2020/12/01 05:17:22;;;;;;;16.77;8.65;;;1.30;90.20;;;;;;5044539;28;20078;-72
2020/12/01 05:19:48;;;;;;;14.95;8.38;;;1.30;90.20;;;;;;5049836;28;20025;-75
2020/12/01 05:22:17;;;;;;;15.95;8.23;;;1.30;90.20;;;;;;5037714;28;20103;-74
2020/12/01 05:24:46;;;;;;;13.23;8.02;;;1.30;90.20;;;;;;5034068;28;20029;-72
2020/12/01 05:27:35;;;;;;;15.23;8.75;;;1.30;90.20;;;;;;5042460;28;20025;-74
2020/12/01 05:30:06;;;;;;;11.88;7.30;;;1.30;90.30;;;;;;5041363;28;20164;-73
2020/12/01 05:32:39;;;;;;;15.50;8.73;;;1.30;90.20;;;;;;5050635;28;20033;-73
2020/12/01 05:35:08;;;;;;;16.67;9.07;;;1.30;90.20;;;;;;5040255;28;20025;-72
2020/12/01 05:37:34;;;;;;;16.05;8.00;;;1.30;90.30;;;;;;5036386;28;20037;-72
2020/12/01 05:40:06;;;;;;;16.17;8.48;;;1.20;90.20;;;;;;5040703;28;20032;-73
2020/12/01 05:42:41;;;;;;;19.25;9.07;;;1.20;90.30;;;;;;5035522;28;20448;-72
2020/12/01 05:45:07;;;;;;;15.82;9.00;;;1.30;90.50;;;;;;5044719;28;20055;-73
2020/12/01 05:47:41;;;;;;;19.67;9.75;;;1.30;90.50;;;;;;5044714;28;20064;-73
2020/12/01 05:50:19;;;;;;;19.98;10.13;;;1.40;90.60;;;;;;5043362;28;20041;-73
2020/12/01 05:52:48;;;;;;;18.77;9.27;;;1.40;90.50;;;;;;5044146;28;20029;-74
2020/12/01 05:55:25;;;;;;;17.40;8.45;;;1.40;90.40;;;;;;5036402;28;20025;-73
2020/12/01 05:58:02;;;;;;;18.45;9.95;;;1.40;90.40;;;;;;5047032;28;20033;-73
2020/12/01 06:00:33;;;;;;;16.85;9.25;;;1.40;90.40;;;;;;5041191;28;20025;-73
2020/12/01 06:03:17;;;;;;;17.58;8.85;;;1.40;90.40;;;;;;5043899;28;20045;-73
2020/12/01 06:05:46;;;;;;;15.35;8.45;;;1.40;90.40;;;;;;5044560;28;20116;-73
2020/12/01 06:08:51;;;;;;;17.10;8.77;;;1.40;90.40;;;;;;5043510;28;20025;-74
2020/12/01 06:11:35;;;;;;;17.00;8.68;;;1.40;90.50;;;;;;5046099;28;20033;-74
2020/12/01 06:14:14;;;;;;;16.25;8.43;;;1.50;90.50;;;;;;5053176;28;20025;-73
2020/12/01 06:16:48;;;;;;;16.38;8.27;;;1.50;90.50;;;;;;5041454;28;20025;-73
2020/12/01 06:19:23;;;;;;;15.57;8.45;;;1.50;90.40;;;;;;5043782;28;20029;-75
2020/12/01 06:22:19;;;;;;;16.13;8.88;;;1.50;90.40;;;;;;5040748;28;20029;-73
2020/12/01 06:25:06;;;;;;;15.07;8.60;;;1.50;90.40;;;;;;5041712;28;20045;-75
2020/12/01 06:27:34;;;;;;;16.20;8.25;;;1.50;90.70;;;;;;5042535;28;20021;-73
2020/12/01 06:30:18;;;;;;;19.50;10.05;;;1.60;90.40;;;;;;5042145;28;20052;-73
2020/12/01 06:33:21;;;;;;;18.73;10.07;;;1.60;90.40;;;;;;5043714;28;20095;-75
2020/12/01 06:36:22;;;;;;;20.10;9.88;;;1.50;90.40;;;;;;5055236;28;20021;-74
2020/12/01 06:39:09;;;;;;;15.27;8.57;;;1.50;90.30;;;;;;5046403;28;20030;-76
2020/12/01 06:41:46;;;;;;;17.10;8.70;;;1.50;90.30;;;;;;5038651;28;20420;-73
2020/12/01 06:44:17;;;;;;;16.48;8.93;;;1.50;90.50;;;;;;5048497;28;20372;-76
2020/12/01 06:46:47;;;;;;;16.38;8.73;;;1.50;90.40;;;;;;5039238;28;20045;-73
2020/12/01 06:49:29;;;;;;;15.35;8.98;;;1.50;90.40;;;;;;5040399;28;20033;-77
2020/12/01 06:52:01;;;;;;;16.40;9.10;;;1.50;90.50;;;;;;5047111;28;20101;-81
2020/12/01 06:54:27;;;;;;;23.48;11.95;;;1.60;90.50;;;;;;5038882;28;20053;-74
2020/12/01 06:57:04;;;;;;;16.23;9.10;;;1.60;90.60;;;;;;5048925;28;20041;-76
2020/12/01 06:59:30;;;;;;;19.00;9.45;;;1.70;90.60;;;;;;5047222;28;20494;-73
2020/12/01 07:02:20;;;;;;;15.18;8.88;;;1.70;90.60;;;;;;5042230;28;20026;-69
2020/12/01 07:04:47;;;;;;;21.73;9.80;;;1.80;90.60;;;;;;5049699;28;20120;-68
2020/12/01 07:07:34;;;;;;;16.88;9.88;;;1.80;90.60;;;;;;5042525;28;20025;-74
2020/12/01 07:10:12;;;;;;;16.55;9.50;;;1.90;90.70;;;;;;5042785;28;20108;-72
2020/12/01 07:12:40;;;;;;;15.27;8.85;;;1.90;90.60;;;;;;5059992;28;20065;-73
2020/12/01 07:15:28;;;;;;;19.02;10.43;;;1.90;90.60;;;;;;5042820;28;20036;-71
2020/12/01 07:18:25;;;;;;;19.33;10.10;;;2.00;90.60;;;;;;5045009;28;20101;-70
2020/12/01 07:21:23;;;;;;;18.35;9.95;;;2.00;90.60;;;;;;5028906;28;20031;-72
2020/12/01 07:24:17;;;;;;;19.92;10.60;;;2.00;90.50;;;;;;5032671;28;20441;-72
2020/12/01 07:26:57;;;;;;;20.63;11.02;;;2.00;90.40;;;;;;5037511;28;20041;-72
2020/12/01 07:30:05;;;;;;;17.60;10.63;;;2.00;90.30;;;;;;5044223;28;20060;-73
2020/12/01 07:32:57;;;;;;;21.25;10.18;;;2.00;90.30;;;;;;5038163;28;20095;-72
2020/12/01 07:35:40;;;;;;;17.00;9.60;;;2.00;90.40;;;;;;5038446;28;20475;-72
2020/12/01 07:38:34;;;;;;;18.10;9.82;;;2.00;90.40;;;;;;5044439;28;20025;-72
2020/12/01 07:41:25;;;;;;;21.60;10.30;;;2.00;90.40;;;;;;5054740;28;20112;-71
2020/12/01 07:44:04;;;;;;;21.73;11.65;;;2.10;90.40;;;;;;5054254;28;20554;-72
2020/12/01 07:46:55;;;;;;;20.00;10.50;;;2.10;90.40;;;;;;5053897;28;20056;-72
2020/12/01 07:49:23;;;;;;;20.45;10.07;;;2.00;90.30;;;;;;5053924;28;20090;-72
2020/12/01 07:51:54;;;;;;;21.95;11.57;;;2.10;90.50;;;;;;5054412;28;20021;-72
2020/12/01 07:54:23;;;;;;;20.92;9.93;;;2.10;90.30;;;;;;5054129;28;20386;-72
2020/12/01 07:56:48;;;;;;;21.60;10.77;;;2.10;90.30;;;;;;5053050;28;20095;-72
2020/12/01 07:59:15;;;;;;;24.08;11.52;;;2.00;90.20;;;;;;5054217;28;20459;-72
2020/12/01 08:01:42;;;;;;;20.25;10.80;;;2.00;90.30;;;;;;5052770;28;20029;-72
2020/12/01 08:04:18;;;;;;;23.90;11.45;;;2.00;90.40;;;;;;5052775;28;20398;-72
2020/12/01 08:06:44;;;;;;;22.92;11.27;;;2.10;90.50;;;;;;5054137;28;20032;-72
2020/12/01 08:09:12;;;;;;;26.50;11.10;;;2.10;90.50;;;;;;5052591;28;20029;-72
2020/12/01 08:11:41;;;;;;;20.45;10.27;;;2.20;90.40;;;;;;5054067;28;20094;-72
2020/12/01 08:14:06;;;;;;;20.35;10.70;;;2.20;90.40;;;;;;5053905;28;20051;-72
2020/12/01 08:16:33;;;;;;;22.20;11.52;;;2.10;90.20;;;;;;5054484;28;20025;-73
2020/12/01 08:18:59;;;;;;;23.00;11.00;;;2.20;90.30;;;;;;5053194;28;20463;-72
2020/12/01 08:21:31;;;;;;;21.42;10.98;;;2.10;90.40;;;;;;5054053;28;20056;-72
2020/12/01 08:24:00;;;;;;;24.70;11.18;;;2.20;90.40;;;;;;5053945;28;20033;-72
2020/12/01 08:26:31;;;;;;;26.85;12.57;;;2.20;90.60;;;;;;5053713;28;20079;-72
2020/12/01 08:29:24;;;;;;;20.85;10.98;;;2.30;90.60;;;;;;5054285;28;20120;-72
2020/12/01 08:32:28;;;;;;;22.52;11.55;;;2.40;90.50;;;;;;5053379;28;20125;-72
2020/12/01 08:35:22;;;;;;;22.13;11.50;;;2.40;90.50;;;;;;5051517;28;20033;-72
2020/12/01 08:37:54;;;;;;;24.63;11.65;;;2.40;90.50;;;;;;5053956;28;20033;-72
2020/12/01 08:40:57;;;;;;;26.52;13.23;;;2.50;90.50;;;;;;5053576;28;20021;-72
2020/12/01 08:43:52;;;;;;;29.80;14.23;;;2.50;90.40;;;;;;5053011;28;20048;-73
2020/12/01 08:46:22;;;;;;;32.22;15.90;;;2.50;90.30;;;;;;5052323;28;20059;-73
2020/12/01 08:49:24;;;;;;;27.80;13.07;;;2.50;90.30;;;;;;5052348;28;20078;-73
2020/12/01 08:51:58;;;;;;;27.80;13.82;;;2.50;90.30;;;;;;5053860;28;20050;-72
2020/12/01 08:54:28;;;;;;;27.35;12.75;;;2.50;90.30;;;;;;5053094;28;20029;-72
2020/12/01 08:57:05;;;;;;;22.63;10.75;;;2.50;90.30;;;;;;5054038;28;20021;-72
2020/12/01 08:59:46;;;;;;;22.58;11.00;;;2.50;90.30;;;;;;5054541;28;20024;-72
2020/12/01 09:02:15;;;;;;;23.77;11.65;;;2.50;90.30;;;;;;5056634;28;20075;-72
2020/12/01 09:04:41;;;;;;;24.15;12.88;;;2.50;90.20;;;;;;5057419;28;20021;-72
2020/12/01 09:07:08;;;;;;;28.27;12.30;;;2.50;90.20;;;;;;5056513;28;20028;-72
2020/12/01 09:09:35;;;;;;;29.40;15.13;;;2.50;90.20;;;;;;5056087;28;20028;-73
2020/12/01 09:12:20;;;;;;;26.52;13.18;;;2.50;90.20;;;;;;5057429;28;20031;-72
2020/12/01 09:17:33;;;;;;;27.95;13.35;;;2.50;90.30;;;;;;5057417;28;20175;-72
2020/12/01 09:22:46;;;;;;;25.57;12.93;;;2.70;90.50;;;;;;5057223;28;20040;-73
2020/12/01 09:25:25;;;;;;;31.10;14.55;;;2.70;90.50;;;;;;5057102;28;20260;-72
2020/12/01 09:27:52;;;;;;;31.52;13.88;;;2.70;90.40;;;;;;5056915;28;20021;-72
2020/12/01 09:30:50;;;;;;;32.38;15.40;;;2.80;90.40;;;;;;5055751;28;20029;-72
2020/12/01 09:33:20;;;;;;;31.65;16.88;;;2.80;90.30;;;;;;5055600;28;20037;-72
2020/12/01 09:35:47;;;;;;;28.73;15.20;;;2.90;90.40;;;;;;5057325;28;20485;-72
2020/12/01 09:38:13;;;;;;;24.77;12.60;;;2.90;90.40;;;;;;5057073;28;20498;-72
2020/12/01 09:40:40;;;;;;;28.23;14.90;;;2.90;90.30;;;;;;5056849;28;20066;-72
2020/12/01 09:43:57;;;;;;;28.55;15.27;;;2.90;90.20;;;;;;5055161;28;20487;-72
2020/12/01 09:45:54;;;;;;;29.63;14.70;;;2.90;90.10;;;;;;5055797;28;20033;-72
2020/12/01 09:48:33;;;;;;;27.75;13.90;;;2.90;90.10;;;;;;5056666;28;20074;-73
2020/12/01 09:51:00;;;;;;;23.50;11.65;;;2.90;90.10;;;;;;5056775;28;20078;-73
2020/12/01 09:53:35;;;;;;;27.27;13.18;;;2.80;90.00;;;;;;5056632;28;20119;-73
2020/12/01 10:09:19;;;;;;;30.45;14.35;;;2.80;90.30;;;;;;5056630;28;20090;-73
2020/12/01 10:35:31;;;;;;;34.55;15.02;;;3.00;90.10;;;;;;5055690;28;20028;-73
2020/12/01 10:37:58;;;;;;;35.92;15.43;;;3.00;90.10;;;;;;5054217;28;20025;-73
2020/12/01 10:40:26;;;;;;;35.38;15.73;;;3.00;90.10;;;;;;5054476;28;20083;-73
2020/12/01 10:42:52;;;;;;;33.63;15.57;;;3.00;90.20;;;;;;5055829;28;20433;-73
2020/12/01 10:45:19;;;;;;;33.72;16.13;;;3.00;90.20;;;;;;5055822;28;20021;-73
2020/12/01 10:47:45;;;;;;;39.88;16.38;;;3.10;90.30;;;;;;5054379;28;20084;-73
2020/12/01 10:50:12;;;;;;;39.92;18.77;;;3.10;90.30;;;;;;5055623;28;20047;-74
2020/12/01 10:52:38;;;;;;;38.47;17.58;;;3.10;90.30;;;;;;5053985;28;20037;-74
2020/12/01 10:55:05;;;;;;;40.20;17.48;;;3.10;90.20;;;;;;5055533;28;20021;-73
2020/12/01 10:57:31;;;;;;;37.83;17.95;;;3.20;90.40;;;;;;5055562;28;20025;-73
2020/12/01 10:59:56;;;;;;;41.08;16.45;;;3.30;90.40;;;;;;5055882;28;20383;-72
2020/12/01 11:02:22;;;;;;;34.30;17.45;;;3.30;90.40;;;;;;5055428;28;20440;-72
2020/12/01 11:04:48;;;;;;;35.85;15.60;;;3.40;90.40;;;;;;5055374;28;20036;-72
2020/12/01 11:07:13;;;;;;;36.22;16.48;;;3.40;90.40;;;;;;5054069;28;20029;-73
2020/12/01 11:09:39;;;;;;;34.17;15.35;;;3.40;90.30;;;;;;5055550;28;20029;-72
2020/12/01 11:12:05;;;;;;;38.15;15.63;;;3.50;90.20;;;;;;5055246;28;20043;-73
2020/12/01 11:14:31;;;;;;;29.48;14.55;;;3.50;90.30;;;;;;5054972;28;20039;-73
2020/12/01 11:16:56;;;;;;;29.15;14.02;;;3.60;90.40;;;;;;5055024;28;20057;-73
2020/12/01 11:19:22;;;;;;;36.53;15.13;;;3.60;90.30;;;;;;5054931;28;20025;-75
2020/12/01 11:21:48;;;;;;;34.90;15.10;;;3.60;90.20;;;;;;5055396;28;20370;-73
2020/12/01 11:24:13;;;;;;;38.80;15.88;;;3.70;90.20;;;;;;5054590;28;20108;-73
2020/12/01 11:26:39;;;;;;;33.92;14.85;;;3.70;90.10;;;;;;5053539;28;20052;-73
2020/12/01 11:29:05;;;;;;;34.72;15.02;;;3.60;90.10;;;;;;5055013;28;20032;-73
2020/12/01 11:31:32;;;;;;;37.97;16.30;;;3.60;90.10;;;;;;5054780;28;20040;-73
2020/12/01 11:34:03;;;;;;;37.38;15.35;;;3.70;90.10;;;;;;5054638;28;20075;-72
2020/12/01 11:36:29;;;;;;;35.65;15.38;;;3.60;90.20;;;;;;5054647;28;20025;-72
2020/12/01 11:38:55;;;;;;;38.65;15.77;;;3.70;90.20;;;;;;5053272;28;20029;-73
2020/12/01 11:41:21;;;;;;;37.58;15.57;;;3.70;90.20;;;;;;5054591;28;20029;-72
2020/12/01 11:43:47;;;;;;;35.90;15.15;;;3.70;90.20;;;;;;5054496;28;20360;-74
2020/12/01 11:46:12;;;;;;;35.20;15.60;;;3.80;90.20;;;;;;5054503;28;20122;-73
2020/12/01 11:48:38;;;;;;;35.58;16.25;;;3.70;90.00;;;;;;5054391;28;20144;-73
2020/12/01 11:51:04;;;;;;;38.50;17.08;;;3.70;90.10;;;;;;5054013;28;20067;-72
2020/12/01 11:53:29;;;;;;;36.47;16.42;;;3.80;90.20;;;;;;5054327;28;20482;-72
2020/12/01 11:55:55;;;;;;;37.97;16.52;;;3.80;90.30;;;;;;5054115;28;20098;-73
2020/12/01 11:58:21;;;;;;;42.55;17.50;;;3.80;90.20;;;;;;5054168;28;20021;-73
2020/12/01 12:00:46;;;;;;;43.80;17.95;;;3.90;90.20;;;;;;5054300;28;20025;-74
2020/12/01 12:03:12;;;;;;;42.08;17.08;;;3.90;90.10;;;;;;5053868;28;20071;-74
2020/12/01 12:05:38;;;;;;;40.85;17.40;;;3.90;90.10;;;;;;5053316;28;20444;-74
2020/12/01 12:08:04;;;;;;;45.75;18.15;;;3.80;90.00;;;;;;5054369;28;20108;-74
2020/12/01 12:10:30;;;;;;;45.55;18.10;;;3.80;90.00;;;;;;5053994;28;20078;-74
2020/12/01 12:12:55;;;;;;;41.17;18.67;;;3.80;90.00;;;;;;5052946;28;20025;-74
2020/12/01 12:15:21;;;;;;;41.15;17.23;;;3.80;90.10;;;;;;5054041;28;20107;-73
2020/12/01 12:17:47;;;;;;;49.42;18.00;;;3.80;90.10;;;;;;5054086;28;20025;-74
2020/12/01 12:20:12;;;;;;;40.42;17.60;;;3.80;90.10;;;;;;5052700;28;20036;-73
2020/12/01 12:22:38;;;;;;;44.90;17.30;;;3.80;90.40;;;;;;5053683;28;20077;-73
2020/12/01 12:25:04;;;;;;;42.30;17.42;;;3.90;90.20;;;;;;5052620;28;20071;-73
2020/12/01 12:27:32;;;;;;;49.28;19.80;;;3.90;90.10;;;;;;5052570;28;20056;-73
2020/12/01 12:29:57;;;;;;;49.53;20.90;;;3.80;90.10;;;;;;5052581;28;20115;-73
2020/12/01 12:32:23;;;;;;;46.60;18.35;;;3.80;90.00;;;;;;5053707;28;20032;-73
2020/12/01 12:34:51;;;;;;;44.03;19.02;;;3.80;90.00;;;;;;5051985;28;20036;-72
2020/12/01 12:37:17;;;;;;;38.95;17.85;;;3.80;90.00;;;;;;5053926;28;20032;-74
2020/12/01 12:39:43;;;;;;;37.22;15.95;;;3.80;90.00;;;;;;5053675;28;20451;-73
2020/12/01 12:42:09;;;;;;;40.78;16.15;;;3.80;90.00;;;;;;5052312;28;20144;-74
2020/12/01 12:44:36;;;;;;;40.17;17.10;;;3.80;90.10;;;;;;5052530;28;20045;-74
2020/12/01 12:47:05;;;;;;;37.75;17.38;;;3.80;90.10;;;;;;5053717;28;20024;-73
2020/12/01 12:49:31;;;;;;;40.97;17.63;;;3.80;90.10;;;;;;5053356;28;20029;-73
2020/12/01 12:51:57;;;;;;;39.17;17.50;;;3.80;90.20;;;;;;5053512;28;20029;-72
2020/12/01 12:54:23;;;;;;;36.63;17.70;;;3.80;90.10;;;;;;5053426;28;20033;-73
2020/12/01 12:56:49;;;;;;;34.88;15.75;;;3.80;90.10;;;;;;5053194;28;20039;-73
2020/12/01 12:59:18;;;;;;;36.88;15.25;;;3.80;90.10;;;;;;5053513;28;20036;-74
2020/12/01 13:01:43;;;;;;;33.22;16.20;;;3.80;90.00;;;;;;5053462;28;20055;-74
2020/12/01 13:04:09;;;;;;;37.90;17.65;;;3.80;90.10;;;;;;5053940;28;20036;-72
2020/12/01 13:06:35;;;;;;;37.85;16.52;;;3.80;90.10;;;;;;5053479;28;20092;-73
2020/12/01 13:09:00;;;;;;;36.13;15.68;;;3.70;90.00;;;;;;5054357;28;20021;-73
2020/12/01 13:11:26;;;;;;;37.22;14.40;;;3.70;90.00;;;;;;5054237;28;20051;-73
2020/12/01 13:13:52;;;;;;;36.33;15.68;;;3.70;90.00;;;;;;5052937;28;20025;-72
2020/12/01 13:16:18;;;;;;;41.58;17.05;;;3.70;90.00;;;;;;5054055;28;20463;-73
2020/12/01 13:18:45;;;;;;;35.85;15.98;;;3.70;90.10;;;;;;5053639;28;20467;-72
2020/12/01 13:21:13;;;;;;;41.70;16.63;;;3.70;90.10;;;;;;5053176;28;20506;-73
2020/12/01 13:23:39;;;;;;;40.50;16.63;;;3.70;90.10;;;;;;5051859;28;20025;-73
2020/12/01 13:26:06;;;;;;;36.30;15.65;;;3.70;90.10;;;;;;5053293;28;20036;-73
2020/12/01 13:28:32;;;;;;;40.08;17.58;;;3.60;90.10;;;;;;5053457;28;20021;-73
2020/12/01 13:30:59;;;;;;;39.85;17.85;;;3.60;90.10;;;;;;5052955;28;20028;-72
2020/12/01 13:33:28;;;;;;;42.17;19.60;;;3.60;90.10;;;;;;5053360;28;20053;-72
2020/12/01 13:35:53;;;;;;;44.83;16.92;;;3.60;90.10;;;;;;5053180;28;20025;-72
2020/12/01 13:38:19;;;;;;;60.70;24.02;;;3.60;90.10;;;;;;5053113;28;20394;-73
2020/12/01 13:40:45;;;;;;;98.85;34.50;;;3.60;90.20;;;;;;5053075;28;20107;-73
2020/12/01 13:43:10;;;;;;;94.75;35.17;;;3.60;90.10;;;;;;5052787;28;20056;-73
2020/12/01 13:45:51;;;;;;;95.78;35.72;;;3.50;90.10;;;;;;5053396;28;20040;-72
2020/12/01 13:48:16;;;;;;;80.13;32.38;;;3.60;90.20;;;;;;5056709;28;20039;-73